Time;durP1;ratioP1;P1;durP2;ratioP2;P2;SDS_P1;SDS_P2;PMS_P1;PMS_P2;Temp;Humidity;BMP_temperature;BMP_pressure;BME280_temperature;BME280_humidity;BME280_pressure;Samples;Min_cycle;Max_cycle;Signal;HPM_P1;HPM_P2
2021/02/07 00:07:04;;;;;;;33.4;22.3;;;;;;;-6.16;86.8291;98630.73;;;;
2021/02/07 00:17:01;;;;;;;29.9;20.3;;;;;;;-6.41;87.01465;98608.7;;;;
2021/02/07 00:26:58;;;;;;;27.1;20.4;;;;;;;-6.45;87.53516;98615.34;;;;
2021/02/07 00:36:55;;;;;;;35.1;17.5;;;;;;;-6.43;87.47363;98629.07;;;;
2021/02/07 00:46:52;;;;;;;32.4;19.3;;;;;;;-6.52;87.45703;98625;;;;
2021/02/07 00:56:49;;;;;;;29;17.3;;;;;;;-6.71;87.25488;98604.8;;;;
2021/02/07 01:06:46;;;;;;;33.2;17.9;;;;;;;-6.84;88.0918;98589.84;;;;
2021/02/07 01:16:43;;;;;;;31.5;17.9;;;;;;;-6.83;87.9209;98561.81;;;;
2021/02/07 01:26:40;;;;;;;26.9;14.8;;;;;;;-6.97;87.6416;98586.34;;;;
2021/02/07 01:36:37;;;;;;;28.4;15.5;;;;;;;-7.03;88.0918;98587.13;;;;
2021/02/07 01:46:34;;;;;;;30;13.7;;;;;;;-6.89;87.9082;98573.89;;;;
2021/02/07 01:56:31;;;;;;;19.8;13.5;;;;;;;-7.05;87.5918;98565.58;;;;
2021/02/07 02:06:39;;;;;;;18.5;11.7;;;;;;;-7.17;89.04688;98545.19;;;;
2021/02/07 02:16:25;;;;;;;20.7;14.2;;;;;;;-7.19;88.69629;98538.54;;;;
2021/02/07 02:26:21;;;;;;;21.7;13.8;;;;;;;-7.35;88.83496;98518.72;;;;
2021/02/07 02:36:18;;;;;;;21.3;12.7;;;;;;;-7.43;88.93652;98512.86;;;;
2021/02/07 02:46:15;;;;;;;20.9;12.6;;;;;;;-7.51;88.71484;98518.25;;;;
2021/02/07 02:56:12;;;;;;;25.1;14.6;;;;;;;-7.52;89.46875;98506.97;;;;
2021/02/07 03:06:09;;;;;;;18.5;14.7;;;;;;;-7.72;88.5957;98491.19;;;;
2021/02/07 03:16:06;;;;;;;23.6;15.2;;;;;;;-7.73;88.60645;98494.8;;;;
2021/02/07 03:26:03;;;;;;;23.7;15.8;;;;;;;-7.74;88.81641;98484.55;;;;
2021/02/07 03:36:00;;;;;;;20.3;13.7;;;;;;;-7.69;88.22461;98469.05;;;;
2021/02/07 03:45:57;;;;;;;23.8;16.6;;;;;;;-7.85;87.41602;98464.97;;;;
2021/02/07 03:55:54;;;;;;;24.3;13.9;;;;;;;-7.81;87.14453;98465.39;;;;
2021/02/07 04:05:51;;;;;;;23.2;14.2;;;;;;;-7.93;86.49414;98453.84;;;;
2021/02/07 04:15:48;;;;;;;26.7;16.9;;;;;;;-7.86;86.54199;98418.08;;;;
2021/02/07 04:25:49;;;;;;;20;14.1;;;;;;;-7.89;86.12695;98408.81;;;;
2021/02/07 04:35:42;;;;;;;20.4;12.1;;;;;;;-7.89;85.73926;98427.13;;;;
2021/02/07 04:45:39;;;;;;;20.3;12;;;;;;;-7.93;85.83789;98430.31;;;;
2021/02/07 04:55:35;;;;;;;18.1;9.1;;;;;;;-8.11;86.17773;98396.02;;;;
2021/02/07 05:15:29;;;;;;;19.7;9.5;;;;;;;-8.35;85.77246;98347.67;;;;
2021/02/07 05:25:26;;;;;;;19.3;13.9;;;;;;;-8.37;86.08105;98354.91;;;;
2021/02/07 05:35:23;;;;;;;16.3;12.1;;;;;;;-8.41;85.77246;98372.78;;;;
2021/02/07 05:45:20;;;;;;;16.1;11.2;;;;;;;-8.34;85.7959;98406.79;;;;
2021/02/07 05:55:17;;;;;;;18.4;10.4;;;;;;;-8.51;85.50391;98384.58;;;;
2021/02/07 06:05:13;;;;;;;18.8;8.6;;;;;;;-8.4;85.03223;98382.22;;;;
2021/02/07 06:15:10;;;;;;;18.9;11.3;;;;;;;-8.49;84.99023;98374.72;;;;
2021/02/07 06:25:07;;;;;;;20.1;9.4;;;;;;;-8.59;85.3916;98369.84;;;;
2021/02/07 06:35:04;;;;;;;18.2;10.8;;;;;;;-8.57;85.20215;98370.45;;;;
2021/02/07 06:45:01;;;;;;;15.5;10.4;;;;;;;-8.62;85.33301;98336.28;;;;
2021/02/07 06:54:58;;;;;;;12.9;9.3;;;;;;;-8.51;84.40625;98334.94;;;;
2021/02/07 07:04:54;;;;;;;15.5;7.9;;;;;;;-8.6;84.40039;98357.78;;;;
2021/02/07 07:14:51;;;;;;;18.1;12;;;;;;;-8.44;84.92773;98292.17;;;;
2021/02/07 07:24:48;;;;;;;17.8;10.9;;;;;;;-8.56;84.10645;98317.22;;;;
2021/02/07 07:34:45;;;;;;;13;8.8;;;;;;;-8.69;87.98242;98309.31;;;;
2021/02/07 07:44:42;;;;;;;12.8;6.2;;;;;;;-8.59;85.58398;98311.58;;;;
2021/02/07 07:54:39;;;;;;;11.3;7.3;;;;;;;-8.41;84.51367;98278.72;;;;
2021/02/07 08:04:36;;;;;;;19.6;11;;;;;;;-8.39;84.19434;98286.34;;;;
2021/02/07 08:14:32;;;;;;;27.8;14;;;;;;;-8.4;84.96777;98288.15;;;;
2021/02/07 08:24:29;;;;;;;15.8;8.1;;;;;;;-8.45;84.4834;98290.55;;;;
2021/02/07 08:34:26;;;;;;;12.5;8.1;;;;;;;-8.47;83.52148;98295.18;;;;
2021/02/07 08:44:23;;;;;;;14.1;8.1;;;;;;;-8.4;84.21191;98282.14;;;;
2021/02/07 08:54:20;;;;;;;17.7;10.8;;;;;;;-8.43;83.02246;98241.52;;;;
2021/02/07 09:04:17;;;;;;;18;11;;;;;;;-8.45;84.12793;98259.2;;;;
2021/02/07 09:14:14;;;;;;;17.8;9.1;;;;;;;-8.4;82.84668;98254.19;;;;
2021/02/07 09:24:10;;;;;;;15;7.7;;;;;;;-8.41;82.71582;98223.85;;;;
2021/02/07 09:34:07;;;;;;;17.3;8.6;;;;;;;-8.46;83.15723;98200.11;;;;
2021/02/07 09:44:04;;;;;;;17.1;12.4;;;;;;;-8.24;83.03809;98172;;;;
2021/02/07 09:54:01;;;;;;;20.4;10.1;;;;;;;-8.59;84.95996;98157.47;;;;
2021/02/07 10:03:58;;;;;;;25.7;11.4;;;;;;;-8.26;84.40234;98142.66;;;;
2021/02/07 10:13:55;;;;;;;17.2;10.5;;;;;;;-8.19;84.76367;98146.87;;;;
2021/02/07 10:23:52;;;;;;;24.1;13.3;;;;;;;-8.03;84.08301;98116.13;;;;
2021/02/07 10:33:49;;;;;;;15.6;8.7;;;;;;;-8.05;85.00586;98126.77;;;;
2021/02/07 10:43:45;;;;;;;15.9;12;;;;;;;-8.03;84.91211;98085.56;;;;
2021/02/07 10:53:42;;;;;;;25.4;14.5;;;;;;;-7.92;84.67578;98071.08;;;;
2021/02/07 11:03:39;;;;;;;21.2;13.8;;;;;;;-7.83;85.12695;98043.7;;;;
2021/02/07 11:13:36;;;;;;;25.1;13.5;;;;;;;-7.65;84.66895;98062.99;;;;
2021/02/07 11:23:33;;;;;;;23.7;15.9;;;;;;;-7.55;85.58203;98046.86;;;;
2021/02/07 11:33:30;;;;;;;25.6;13.5;;;;;;;-7.79;87.14844;98018.75;;;;
2021/02/07 11:43:27;;;;;;;22.2;13.8;;;;;;;-7.67;87.12109;98004.83;;;;
2021/02/07 11:53:24;;;;;;;19;13.3;;;;;;;-7.75;87.90137;97991.19;;;;
2021/02/07 12:03:20;;;;;;;22.2;15.1;;;;;;;-7.7;88.89063;97980.89;;;;
2021/02/07 12:13:17;;;;;;;27.7;18.7;;;;;;;-7.59;89.80664;97987.3;;;;
2021/02/07 12:23:14;;;;;;;21.9;13;;;;;;;-7.74;89.60254;97971.88;;;;
2021/02/07 12:33:12;;;;;;;20;13.2;;;;;;;-7.6;90.22461;97956.94;;;;
2021/02/07 12:43:08;;;;;;;19.5;14.5;;;;;;;-7.57;90.29492;97922.51;;;;
2021/02/07 12:53:05;;;;;;;22.1;13.9;;;;;;;-7.52;89.73828;97905.16;;;;
2021/02/07 13:03:02;;;;;;;21.9;15.3;;;;;;;-7.53;91.61816;97893.08;;;;
2021/02/07 13:12:59;;;;;;;36.7;21.6;;;;;;;-7.4;91.43164;97866.86;;;;
2021/02/07 13:22:56;;;;;;;18.4;14.1;;;;;;;-7.26;91.53809;97829.13;;;;
2021/02/07 13:32:53;;;;;;;20.1;14;;;;;;;-7.33;91.2002;97877.28;;;;
2021/02/07 13:42:50;;;;;;;20.3;14;;;;;;;-7.17;91.34082;97871.53;;;;
2021/02/07 13:52:47;;;;;;;15.7;11.1;;;;;;;-7.24;91.19824;97861.11;;;;
2021/02/07 14:02:44;;;;;;;20.7;14.9;;;;;;;-7.14;91.10059;97843.11;;;;
2021/02/07 14:12:43;;;;;;;19.3;11.3;;;;;;;-7.18;91.34082;97841.92;;;;
2021/02/07 14:22:38;;;;;;;21.3;11.5;;;;;;;-7.05;91.98242;97843.66;;;;
2021/02/07 14:32:37;;;;;;;15.5;11.8;;;;;;;-7.15;90.98047;97828.41;;;;
2021/02/07 14:42:31;;;;;;;17.8;11.4;;;;;;;-7.26;91.96973;97829.13;;;;
2021/02/07 14:52:28;;;;;;;16.4;10;;;;;;;-7.27;91.28906;97827.51;;;;
2021/02/07 15:02:25;;;;;;;12.5;8.8;;;;;;;-7.38;91.4248;97788.93;;;;
2021/02/07 15:22:19;;;;;;;17.8;11.2;;;;;;;-7.49;90.73242;97780.95;;;;
2021/02/07 15:32:16;;;;;;;17.7;11.7;;;;;;;-7.62;90.43848;97794.94;;;;
2021/02/07 15:42:13;;;;;;;19.1;13.5;;;;;;;-7.59;90.85156;97799.75;;;;
2021/02/07 15:52:10;;;;;;;14.6;10.6;;;;;;;-7.66;91.1582;97804.22;;;;
2021/02/07 16:02:07;;;;;;;12.1;10.4;;;;;;;-7.77;91.86914;97803.08;;;;
2021/02/07 16:12:04;;;;;;;20.8;9.5;;;;;;;-7.73;91.81152;97787.77;;;;
2021/02/07 16:22:00;;;;;;;14.2;10;;;;;;;-7.72;91.21191;97784.95;;;;
2021/02/07 16:31:57;;;;;;;18.2;12.5;;;;;;;-7.81;90.38477;97786.2;;;;
2021/02/07 16:41:54;;;;;;;18.8;14.1;;;;;;;-7.78;90.57617;97791.03;;;;
2021/02/07 16:51:51;;;;;;;22.1;13.1;;;;;;;-7.78;89.63965;97759.65;;;;
2021/02/07 17:01:48;;;;;;;15;8.1;;;;;;;-7.69;88.89258;97775.88;;;;
2021/02/07 17:11:45;;;;;;;15.7;10.1;;;;;;;-7.68;89.60449;97782.72;;;;
2021/02/07 17:21:42;;;;;;;24.5;14.5;;;;;;;-7.79;89.64648;97752;;;;
2021/02/07 17:31:40;;;;;;;25.2;14.8;;;;;;;-7.9;89.78516;97732.56;;;;
2021/02/07 17:41:37;;;;;;;19.4;11.3;;;;;;;-8.07;89.69434;97734.08;;;;
2021/02/07 17:51:32;;;;;;;18.6;10.4;;;;;;;-8.13;89.51855;97739.34;;;;
2021/02/07 18:01:29;;;;;;;20.4;14;;;;;;;-8.23;89.22168;97738;;;;
2021/02/07 18:11:26;;;;;;;23.8;13.2;;;;;;;-8.22;89.15723;97736.96;;;;
2021/02/07 18:21:22;;;;;;;16.3;10.4;;;;;;;-8.16;88.90137;97736.12;;;;
2021/02/07 18:31:19;;;;;;;20.9;10.9;;;;;;;-8.29;88.89648;97715.32;;;;
2021/02/07 18:41:16;;;;;;;17.9;12.6;;;;;;;-8.39;88.68066;97720.2;;;;
2021/02/07 18:51:13;;;;;;;14.4;11;;;;;;;-8.39;88.46484;97714.97;;;;
2021/02/07 19:01:10;;;;;;;20;9.2;;;;;;;-8.38;88.65039;97724.42;;;;
2021/02/07 19:11:06;;;;;;;32.2;14.4;;;;;;;-8.43;88.77832;97695.49;;;;
2021/02/07 19:21:03;;;;;;;17.4;10.4;;;;;;;-8.53;88.72559;97653.36;;;;
2021/02/07 19:31:00;;;;;;;18.5;12.2;;;;;;;-8.59;89.18652;97594.13;;;;
2021/02/07 19:40:57;;;;;;;23.7;13.1;;;;;;;-8.55;89.18359;97569.2;;;;
2021/02/07 19:50:53;;;;;;;23;15.8;;;;;;;-8.51;89.23438;97587.86;;;;
2021/02/07 20:00:50;;;;;;;17.4;11.7;;;;;;;-8.49;88.97949;97593.66;;;;
2021/02/07 20:10:47;;;;;;;21.1;12.7;;;;;;;-8.47;89.55566;97613.36;;;;
2021/02/07 20:20:44;;;;;;;21;10.8;;;;;;;-8.49;89.33594;97597.08;;;;
2021/02/07 20:30:41;;;;;;;18.6;11.5;;;;;;;-8.37;89.41504;97590.18;;;;
2021/02/07 20:40:37;;;;;;;26.2;15.1;;;;;;;-8.38;89.19824;97572.89;;;;
2021/02/07 20:50:37;;;;;;;14.6;7.3;;;;;;;-8.21;89.81641;97542.58;;;;
2021/02/07 21:00:31;;;;;;;16.9;10.3;;;;;;;-8.33;89.12305;97565.2;;;;
2021/02/07 21:10:29;;;;;;;21.5;13.3;;;;;;;-8.3;89.3877;97564.8;;;;
2021/02/07 21:20:25;;;;;;;19.1;10.9;;;;;;;-8.28;89.16699;97560.13;;;;
2021/02/07 21:30:22;;;;;;;22.2;12.9;;;;;;;-8.24;90.14258;97550.84;;;;
2021/02/07 21:40:18;;;;;;;20.8;12.6;;;;;;;-8.17;90.27637;97528.08;;;;
2021/02/07 21:50:15;;;;;;;18.7;12;;;;;;;-8.21;89.58887;97526.09;;;;
2021/02/07 22:00:12;;;;;;;24;15.2;;;;;;;-8.19;89.40137;97514.41;;;;
2021/02/07 22:10:09;;;;;;;19.4;11.9;;;;;;;-8.17;89.27637;97515.01;;;;
2021/02/07 22:20:06;;;;;;;14.1;11;;;;;;;-8.2;89.68945;97491.92;;;;
2021/02/07 22:30:03;;;;;;;21.2;12.5;;;;;;;-8.24;89.47559;97456.78;;;;
2021/02/07 22:39:59;;;;;;;20.1;11;;;;;;;-8.22;90.43652;97435.64;;;;
2021/02/07 22:49:56;;;;;;;19.5;11.9;;;;;;;-8.29;90.06641;97408.81;;;;
2021/02/07 22:59:53;;;;;;;20.5;10.2;;;;;;;-8.39;90.32422;97398.06;;;;
2021/02/07 23:09:50;;;;;;;25.9;13.1;;;;;;;-8.39;90.81836;97346.63;;;;
2021/02/07 23:19:46;;;;;;;20.5;11.2;;;;;;;-8.38;90.3584;97361.29;;;;
2021/02/07 23:29:43;;;;;;;21.6;12.2;;;;;;;-8.41;90.12695;97343.44;;;;
2021/02/07 23:39:40;;;;;;;14;9.7;;;;;;;-8.39;90.46387;97345.82;;;;
2021/02/07 23:49:38;;;;;;;18.8;10.6;;;;;;;-8.39;90.63574;97319.7;;;;
2021/02/07 23:59:34;;;;;;;22.3;10.2;;;;;;;-8.34;90.66699;97314.63;;;;
